sensor_id;sensor_type;location;lat;lon;timestamp;pressure;altitude;pressure_sealevel;temperature;humidity
75640;BME280;64233;51.486;6.332;2023-04-30T00:01:00;102009.06;;;6.61;100.00
75640;BME280;64233;51.486;6.332;2023-04-30T00:03:25;102014.59;;;6.59;100.00
75640;BME280;64233;51.486;6.332;2023-04-30T00:05:51;102011.06;;;6.59;100.00
75640;BME280;64233;51.486;6.332;2023-04-30T00:08:16;102013.13;;;6.57;100.00
75640;BME280;64233;51.486;6.332;2023-04-30T00:10:41;102020.88;;;6.51;100.00
75640;BME280;64233;51.486;6.332;2023-04-30T00:13:07;102018.22;;;6.51;100.00
75640;BME280;64233;51.486;6.332;2023-04-30T00:15:34;102016.75;;;6.49;100.00
75640;BME280;64233;51.486;6.332;2023-04-30T00:18:00;102012.56;;;6.40;100.00
75640;BME280;64233;51.486;6.332;2023-04-30T00:20:25;102008.50;;;6.44;100.00
75640;BME280;64233;51.486;6.332;2023-04-30T00:22:51;102009.25;;;6.37;100.00
75640;BME280;64233;51.486;6.332;2023-04-30T00:25:16;102007.81;;;6.35;100.00
75640;BME280;64233;51.486;6.332;2023-04-30T00:27:41;102010.03;;;6.31;100.00
75640;BME280;64233;51.486;6.332;2023-04-30T00:30:07;102006.31;;;6.26;100.00
75640;BME280;64233;51.486;6.332;2023-04-30T00:32:32;102006.81;;;6.14;100.00
75640;BME280;64233;51.486;6.332;2023-04-30T00:34:57;102011.06;;;6.09;100.00
75640;BME280;64233;51.486;6.332;2023-04-30T00:37:22;102012.94;;;5.93;100.00
75640;BME280;64233;51.486;6.332;2023-04-30T00:39:48;102012.63;;;5.81;100.00
75640;BME280;64233;51.486;6.332;2023-04-30T00:42:13;102009.09;;;5.81;100.00
75640;BME280;64233;51.486;6.332;2023-04-30T00:44:38;102019.06;;;5.72;100.00
75640;BME280;64233;51.486;6.332;2023-04-30T00:47:03;102024.50;;;5.64;100.00
75640;BME280;64233;51.486;6.332;2023-04-30T00:49:29;102027.16;;;5.64;100.00
75640;BME280;64233;51.486;6.332;2023-04-30T00:51:54;102019.34;;;5.62;100.00
75640;BME280;64233;51.486;6.332;2023-04-30T00:54:20;102012.53;;;5.75;100.00
75640;BME280;64233;51.486;6.332;2023-04-30T00:56:45;102019.84;;;5.88;100.00
75640;BME280;64233;51.486;6.332;2023-04-30T00:59:12;102019.66;;;5.89;100.00
75640;BME280;64233;51.486;6.332;2023-04-30T01:01:37;102018.38;;;5.85;100.00
75640;BME280;64233;51.486;6.332;2023-04-30T01:04:03;102019.25;;;5.71;100.00
75640;BME280;64233;51.486;6.332;2023-04-30T01:06:28;102022.09;;;5.69;100.00
75640;BME280;64233;51.486;6.332;2023-04-30T01:08:54;102013.34;;;5.75;100.00
75640;BME280;64233;51.486;6.332;2023-04-30T01:16:35;102013.44;;;5.67;100.00
75640;BME280;64233;51.486;6.332;2023-04-30T01:19:08;102016.31;;;5.65;100.00
75640;BME280;64233;51.486;6.332;2023-04-30T01:21:38;102011.81;;;5.66;100.00
75640;BME280;64233;51.486;6.332;2023-04-30T01:24:17;102010.75;;;5.60;100.00
75640;BME280;64233;51.486;6.332;2023-04-30T01:29:35;102006.41;;;5.59;100.00
75640;BME280;64233;51.486;6.332;2023-04-30T01:32:01;102000.19;;;5.52;100.00
75640;BME280;64233;51.486;6.332;2023-04-30T01:34:27;102003.13;;;5.42;100.00
75640;BME280;64233;51.486;6.332;2023-04-30T01:37:15;102002.72;;;5.24;100.00
75640;BME280;64233;51.486;6.332;2023-04-30T01:42:54;102011.72;;;5.08;100.00
75640;BME280;64233;51.486;6.332;2023-04-30T01:50:51;102003.34;;;5.26;100.00
75640;BME280;64233;51.486;6.332;2023-04-30T01:53:21;102003.72;;;5.23;100.00
75640;BME280;64233;51.486;6.332;2023-04-30T01:55:58;102013.25;;;5.17;100.00
75640;BME280;64233;51.486;6.332;2023-04-30T01:58:26;102006.19;;;5.24;100.00
75640;BME280;64233;51.486;6.332;2023-04-30T02:00:51;102003.19;;;5.27;100.00
75640;BME280;64233;51.486;6.332;2023-04-30T02:03:17;102007.03;;;5.25;100.00
75640;BME280;64233;51.486;6.332;2023-04-30T02:05:43;102014.63;;;5.13;100.00
75640;BME280;64233;51.486;6.332;2023-04-30T02:08:08;102022.56;;;5.06;100.00
75640;BME280;64233;51.486;6.332;2023-04-30T02:10:33;102008.88;;;5.09;100.00
75640;BME280;64233;51.486;6.332;2023-04-30T02:12:59;102023.38;;;5.07;100.00
75640;BME280;64233;51.486;6.332;2023-04-30T02:15:24;102006.78;;;5.05;100.00
75640;BME280;64233;51.486;6.332;2023-04-30T02:17:49;102010.25;;;5.05;100.00
75640;BME280;64233;51.486;6.332;2023-04-30T02:20:15;102015.28;;;5.00;100.00
75640;BME280;64233;51.486;6.332;2023-04-30T02:22:40;102011.69;;;4.93;100.00
75640;BME280;64233;51.486;6.332;2023-04-30T02:25:06;102007.75;;;4.89;100.00
75640;BME280;64233;51.486;6.332;2023-04-30T02:27:32;102004.16;;;4.81;100.00
75640;BME280;64233;51.486;6.332;2023-04-30T02:29:58;102005.16;;;4.80;100.00
75640;BME280;64233;51.486;6.332;2023-04-30T02:32:23;102017.97;;;4.62;100.00
75640;BME280;64233;51.486;6.332;2023-04-30T02:34:49;102019.63;;;4.48;100.00
75640;BME280;64233;51.486;6.332;2023-04-30T02:37:14;102018.97;;;4.46;100.00
75640;BME280;64233;51.486;6.332;2023-04-30T02:39:40;102019.53;;;4.56;100.00
75640;BME280;64233;51.486;6.332;2023-04-30T02:42:05;102014.88;;;4.73;100.00
75640;BME280;64233;51.486;6.332;2023-04-30T02:44:31;102017.16;;;4.61;100.00
75640;BME280;64233;51.486;6.332;2023-04-30T02:46:57;102026.69;;;4.56;100.00
75640;BME280;64233;51.486;6.332;2023-04-30T02:49:22;102019.72;;;4.55;100.00
75640;BME280;64233;51.486;6.332;2023-04-30T02:51:48;102021.06;;;4.51;100.00
75640;BME280;64233;51.486;6.332;2023-04-30T02:54:13;102013.28;;;4.49;100.00
75640;BME280;64233;51.486;6.332;2023-04-30T02:56:38;102011.66;;;4.63;100.00
75640;BME280;64233;51.486;6.332;2023-04-30T02:59:04;102011.84;;;4.61;100.00
75640;BME280;64233;51.486;6.332;2023-04-30T03:01:29;102007.72;;;4.59;100.00
75640;BME280;64233;51.486;6.332;2023-04-30T03:03:54;102009.06;;;4.55;100.00
75640;BME280;64233;51.486;6.332;2023-04-30T03:06:20;102005.72;;;4.61;100.00
75640;BME280;64233;51.486;6.332;2023-04-30T03:08:45;102007.78;;;4.51;100.00
75640;BME280;64233;51.486;6.332;2023-04-30T03:11:11;102010.56;;;4.57;100.00
75640;BME280;64233;51.486;6.332;2023-04-30T03:13:36;102005.91;;;4.59;100.00
75640;BME280;64233;51.486;6.332;2023-04-30T03:16:02;102000.00;;;4.49;100.00
75640;BME280;64233;51.486;6.332;2023-04-30T03:18:30;102003.13;;;4.53;100.00
75640;BME280;64233;51.486;6.332;2023-04-30T03:20:56;101990.19;;;4.50;100.00
75640;BME280;64233;51.486;6.332;2023-04-30T03:23:21;101990.19;;;4.50;100.00
75640;BME280;64233;51.486;6.332;2023-04-30T03:25:46;101987.59;;;4.41;100.00
75640;BME280;64233;51.486;6.332;2023-04-30T03:28:12;101993.16;;;4.31;100.00
75640;BME280;64233;51.486;6.332;2023-04-30T03:30:38;101993.59;;;4.20;100.00
75640;BME280;64233;51.486;6.332;2023-04-30T03:33:03;101994.31;;;4.14;100.00
75640;BME280;64233;51.486;6.332;2023-04-30T03:35:32;101993.66;;;4.12;100.00
75640;BME280;64233;51.486;6.332;2023-04-30T03:37:58;101987.94;;;4.00;100.00
75640;BME280;64233;51.486;6.332;2023-04-30T03:40:24;101988.53;;;4.10;100.00
75640;BME280;64233;51.486;6.332;2023-04-30T03:42:49;101996.19;;;4.05;100.00
75640;BME280;64233;51.486;6.332;2023-04-30T03:45:14;102005.34;;;4.26;100.00
75640;BME280;64233;51.486;6.332;2023-04-30T03:47:41;102005.97;;;4.28;100.00
75640;BME280;64233;51.486;6.332;2023-04-30T03:50:07;102006.41;;;4.40;100.00
75640;BME280;64233;51.486;6.332;2023-04-30T03:52:33;102005.38;;;4.41;100.00
75640;BME280;64233;51.486;6.332;2023-04-30T03:54:58;102010.41;;;4.36;100.00
75640;BME280;64233;51.486;6.332;2023-04-30T03:57:23;102008.13;;;4.33;100.00
75640;BME280;64233;51.486;6.332;2023-04-30T03:59:49;102013.25;;;4.34;100.00
75640;BME280;64233;51.486;6.332;2023-04-30T04:02:15;102015.56;;;4.37;100.00
75640;BME280;64233;51.486;6.332;2023-04-30T04:04:41;102012.59;;;4.32;100.00
75640;BME280;64233;51.486;6.332;2023-04-30T04:07:06;102013.44;;;4.33;100.00
75640;BME280;64233;51.486;6.332;2023-04-30T04:09:33;102011.13;;;4.29;100.00
75640;BME280;64233;51.486;6.332;2023-04-30T04:11:59;102012.31;;;4.27;100.00
75640;BME280;64233;51.486;6.332;2023-04-30T04:14:25;102012.31;;;4.27;100.00
75640;BME280;64233;51.486;6.332;2023-04-30T04:16:50;102021.16;;;4.19;100.00
75640;BME280;64233;51.486;6.332;2023-04-30T04:19:15;102021.34;;;4.18;100.00
75640;BME280;64233;51.486;6.332;2023-04-30T04:21:41;102022.66;;;4.22;100.00
75640;BME280;64233;51.486;6.332;2023-04-30T04:24:06;102012.03;;;4.22;100.00
75640;BME280;64233;51.486;6.332;2023-04-30T04:26:36;102004.22;;;4.20;100.00
75640;BME280;64233;51.486;6.332;2023-04-30T04:29:05;102009.13;;;4.31;100.00
75640;BME280;64233;51.486;6.332;2023-04-30T04:31:30;102011.91;;;4.38;100.00
75640;BME280;64233;51.486;6.332;2023-04-30T04:33:58;102016.19;;;4.39;100.00
75640;BME280;64233;51.486;6.332;2023-04-30T04:36:27;102015.69;;;4.44;100.00
75640;BME280;64233;51.486;6.332;2023-04-30T04:38:56;102016.66;;;4.43;100.00
75640;BME280;64233;51.486;6.332;2023-04-30T04:41:22;102019.56;;;4.33;100.00
75640;BME280;64233;51.486;6.332;2023-04-30T04:43:48;102024.50;;;4.21;100.00
75640;BME280;64233;51.486;6.332;2023-04-30T04:46:13;102025.31;;;4.22;100.00
75640;BME280;64233;51.486;6.332;2023-04-30T04:48:40;102030.75;;;4.28;100.00
75640;BME280;64233;51.486;6.332;2023-04-30T04:51:06;102023.03;;;4.34;100.00
75640;BME280;64233;51.486;6.332;2023-04-30T04:53:31;102028.59;;;4.24;100.00
75640;BME280;64233;51.486;6.332;2023-04-30T04:55:56;102025.88;;;4.32;100.00
75640;BME280;64233;51.486;6.332;2023-04-30T04:58:22;102019.38;;;4.35;100.00
75640;BME280;64233;51.486;6.332;2023-04-30T05:00:47;102026.63;;;4.41;100.00
75640;BME280;64233;51.486;6.332;2023-04-30T05:03:12;102026.94;;;4.46;100.00
75640;BME280;64233;51.486;6.332;2023-04-30T05:05:38;102033.38;;;4.52;100.00
75640;BME280;64233;51.486;6.332;2023-04-30T05:08:03;102033.75;;;4.63;100.00
75640;BME280;64233;51.486;6.332;2023-04-30T05:10:29;102040.84;;;4.71;100.00
75640;BME280;64233;51.486;6.332;2023-04-30T05:12:54;102040.13;;;4.77;100.00
75640;BME280;64233;51.486;6.332;2023-04-30T05:15:19;102044.75;;;4.83;100.00
75640;BME280;64233;51.486;6.332;2023-04-30T05:17:45;102043.84;;;5.06;100.00
75640;BME280;64233;51.486;6.332;2023-04-30T05:20:11;102053.38;;;5.45;100.00
75640;BME280;64233;51.486;6.332;2023-04-30T05:22:36;102052.59;;;5.81;100.00
75640;BME280;64233;51.486;6.332;2023-04-30T05:25:02;102056.97;;;6.04;100.00
75640;BME280;64233;51.486;6.332;2023-04-30T05:27:28;102052.25;;;6.06;100.00
75640;BME280;64233;51.486;6.332;2023-04-30T05:29:53;102052.94;;;6.15;100.00
75640;BME280;64233;51.486;6.332;2023-04-30T05:32:18;102052.56;;;6.18;100.00
75640;BME280;64233;51.486;6.332;2023-04-30T05:34:44;102052.91;;;6.08;100.00
75640;BME280;64233;51.486;6.332;2023-04-30T05:37:09;102052.53;;;5.96;100.00
75640;BME280;64233;51.486;6.332;2023-04-30T05:39:34;102053.22;;;5.83;100.00
75640;BME280;64233;51.486;6.332;2023-04-30T05:42:00;102050.72;;;5.82;100.00
75640;BME280;64233;51.486;6.332;2023-04-30T05:44:26;102051.13;;;5.79;100.00
75640;BME280;64233;51.486;6.332;2023-04-30T05:46:54;102046.22;;;5.82;100.00
75640;BME280;64233;51.486;6.332;2023-04-30T05:49:19;102053.09;;;5.92;100.00
75640;BME280;64233;51.486;6.332;2023-04-30T05:51:45;102055.97;;;5.90;100.00
75640;BME280;64233;51.486;6.332;2023-04-30T05:54:10;102061.25;;;6.05;100.00
75640;BME280;64233;51.486;6.332;2023-04-30T05:56:35;102055.38;;;6.10;100.00
75640;BME280;64233;51.486;6.332;2023-04-30T05:59:00;102058.25;;;6.30;100.00
75640;BME280;64233;51.486;6.332;2023-04-30T06:01:26;102056.06;;;6.40;100.00
75640;BME280;64233;51.486;6.332;2023-04-30T06:03:52;102062.41;;;6.39;100.00
75640;BME280;64233;51.486;6.332;2023-04-30T06:06:18;102062.41;;;6.39;100.00
75640;BME280;64233;51.486;6.332;2023-04-30T06:08:43;102057.78;;;6.48;100.00
75640;BME280;64233;51.486;6.332;2023-04-30T06:11:10;102057.38;;;6.72;100.00
75640;BME280;64233;51.486;6.332;2023-04-30T06:13:36;102054.03;;;6.92;100.00
75640;BME280;64233;51.486;6.332;2023-04-30T06:16:01;102055.75;;;7.06;100.00
75640;BME280;64233;51.486;6.332;2023-04-30T06:18:26;102050.31;;;7.28;100.00
75640;BME280;64233;51.486;6.332;2023-04-30T06:20:52;102051.47;;;7.12;100.00
75640;BME280;64233;51.486;6.332;2023-04-30T06:23:17;102047.78;;;7.13;100.00
75640;BME280;64233;51.486;6.332;2023-04-30T06:25:42;102065.06;;;7.17;100.00
75640;BME280;64233;51.486;6.332;2023-04-30T06:28:07;102063.22;;;7.18;100.00
75640;BME280;64233;51.486;6.332;2023-04-30T06:30:34;102055.72;;;7.35;100.00
75640;BME280;64233;51.486;6.332;2023-04-30T06:32:59;102062.72;;;7.36;100.00
75640;BME280;64233;51.486;6.332;2023-04-30T06:35:24;102065.28;;;7.57;100.00
75640;BME280;64233;51.486;6.332;2023-04-30T06:37:50;102062.47;;;7.79;100.00
75640;BME280;64233;51.486;6.332;2023-04-30T06:40:15;102061.72;;;7.99;100.00
75640;BME280;64233;51.486;6.332;2023-04-30T06:42:40;102056.19;;;8.07;100.00
75640;BME280;64233;51.486;6.332;2023-04-30T06:45:06;102062.38;;;8.27;100.00
75640;BME280;64233;51.486;6.332;2023-04-30T06:47:32;102057.22;;;8.26;100.00
75640;BME280;64233;51.486;6.332;2023-04-30T06:50:02;102058.25;;;8.25;100.00
75640;BME280;64233;51.486;6.332;2023-04-30T06:52:28;102051.47;;;8.22;100.00
75640;BME280;64233;51.486;6.332;2023-04-30T06:54:54;102055.78;;;8.23;100.00
75640;BME280;64233;51.486;6.332;2023-04-30T06:57:19;102061.97;;;8.37;100.00
75640;BME280;64233;51.486;6.332;2023-04-30T06:59:44;102058.06;;;8.33;100.00
75640;BME280;64233;51.486;6.332;2023-04-30T07:02:10;102053.34;;;8.35;100.00
75640;BME280;64233;51.486;6.332;2023-04-30T07:04:35;102055.03;;;8.56;100.00
75640;BME280;64233;51.486;6.332;2023-04-30T07:07:00;102059.97;;;8.59;100.00
75640;BME280;64233;51.486;6.332;2023-04-30T07:09:27;102049.66;;;8.76;100.00
75640;BME280;64233;51.486;6.332;2023-04-30T07:11:53;102055.19;;;8.88;100.00
75640;BME280;64233;51.486;6.332;2023-04-30T07:14:18;102055.59;;;9.05;100.00
75640;BME280;64233;51.486;6.332;2023-04-30T07:16:43;102060.56;;;9.02;100.00
75640;BME280;64233;51.486;6.332;2023-04-30T07:19:09;102060.97;;;8.92;100.00
75640;BME280;64233;51.486;6.332;2023-04-30T07:21:34;102059.53;;;8.96;100.00
75640;BME280;64233;51.486;6.332;2023-04-30T07:23:59;102060.94;;;9.12;100.00
75640;BME280;64233;51.486;6.332;2023-04-30T07:26:25;102052.41;;;9.35;100.00
75640;BME280;64233;51.486;6.332;2023-04-30T07:28:50;102058.94;;;9.59;100.00
75640;BME280;64233;51.486;6.332;2023-04-30T07:31:16;102058.72;;;9.61;100.00
75640;BME280;64233;51.486;6.332;2023-04-30T07:33:41;102052.53;;;9.60;100.00
75640;BME280;64233;51.486;6.332;2023-04-30T07:36:06;102049.94;;;9.40;100.00
75640;BME280;64233;51.486;6.332;2023-04-30T07:38:32;102060.88;;;9.32;100.00
75640;BME280;64233;51.486;6.332;2023-04-30T07:40:57;102049.84;;;9.67;100.00
75640;BME280;64233;51.486;6.332;2023-04-30T07:43:22;102049.97;;;9.79;100.00
75640;BME280;64233;51.486;6.332;2023-04-30T07:45:48;102051.94;;;9.97;100.00
75640;BME280;64233;51.486;6.332;2023-04-30T07:48:14;102059.91;;;10.10;100.00
75640;BME280;64233;51.486;6.332;2023-04-30T07:50:39;102059.00;;;10.23;100.00
75640;BME280;64233;51.486;6.332;2023-04-30T07:53:05;102066.56;;;10.40;100.00
75640;BME280;64233;51.486;6.332;2023-04-30T07:55:33;102059.94;;;10.42;100.00
75640;BME280;64233;51.486;6.332;2023-04-30T07:57:58;102062.88;;;10.34;100.00
75640;BME280;64233;51.486;6.332;2023-04-30T08:00:24;102065.97;;;10.31;100.00
75640;BME280;64233;51.486;6.332;2023-04-30T08:02:50;102062.41;;;10.44;100.00
75640;BME280;64233;51.486;6.332;2023-04-30T08:05:15;102058.03;;;10.49;100.00
75640;BME280;64233;51.486;6.332;2023-04-30T08:07:41;102060.97;;;10.41;100.00
75640;BME280;64233;51.486;6.332;2023-04-30T08:10:08;102067.66;;;10.25;100.00
75640;BME280;64233;51.486;6.332;2023-04-30T08:12:37;102064.91;;;10.39;100.00
75640;BME280;64233;51.486;6.332;2023-04-30T08:15:04;102068.03;;;10.29;100.00
75640;BME280;64233;51.486;6.332;2023-04-30T08:17:31;102064.97;;;10.57;100.00
75640;BME280;64233;51.486;6.332;2023-04-30T08:19:56;102062.88;;;10.84;100.00
75640;BME280;64233;51.486;6.332;2023-04-30T08:22:22;102063.94;;;10.58;100.00
75640;BME280;64233;51.486;6.332;2023-04-30T08:24:47;102066.38;;;10.60;100.00
75640;BME280;64233;51.486;6.332;2023-04-30T08:27:12;102073.00;;;10.82;100.00
75640;BME280;64233;51.486;6.332;2023-04-30T08:29:38;102067.00;;;10.62;100.00
75640;BME280;64233;51.486;6.332;2023-04-30T08:32:03;102066.63;;;10.58;100.00
75640;BME280;64233;51.486;6.332;2023-04-30T08:34:29;102064.19;;;10.75;100.00
75640;BME280;64233;51.486;6.332;2023-04-30T08:36:55;102072.75;;;10.91;100.00
75640;BME280;64233;51.486;6.332;2023-04-30T08:39:20;102073.50;;;10.98;100.00
75640;BME280;64233;51.486;6.332;2023-04-30T08:41:52;102071.56;;;11.42;100.00
75640;BME280;64233;51.486;6.332;2023-04-30T08:44:20;102069.78;;;11.17;100.00
75640;BME280;64233;51.486;6.332;2023-04-30T08:46:50;102071.81;;;11.41;100.00
75640;BME280;64233;51.486;6.332;2023-04-30T08:49:17;102065.44;;;10.98;100.00
75640;BME280;64233;51.486;6.332;2023-04-30T08:51:43;102068.28;;;11.59;100.00
75640;BME280;64233;51.486;6.332;2023-04-30T08:54:11;102068.06;;;11.60;100.00
75640;BME280;64233;51.486;6.332;2023-04-30T08:56:36;102059.03;;;11.54;100.00
75640;BME280;64233;51.486;6.332;2023-04-30T08:59:02;102054.84;;;11.59;100.00
75640;BME280;64233;51.486;6.332;2023-04-30T09:01:28;102061.47;;;11.75;100.00
75640;BME280;64233;51.486;6.332;2023-04-30T09:03:54;102052.50;;;11.62;100.00
75640;BME280;64233;51.486;6.332;2023-04-30T09:06:19;102057.91;;;11.44;100.00
75640;BME280;64233;51.486;6.332;2023-04-30T09:08:47;102050.94;;;11.73;100.00
75640;BME280;64233;51.486;6.332;2023-04-30T09:11:20;102050.16;;;11.84;100.00
75640;BME280;64233;51.486;6.332;2023-04-30T09:13:47;102051.22;;;12.14;100.00
75640;BME280;64233;51.486;6.332;2023-04-30T09:16:13;102050.59;;;12.00;100.00
75640;BME280;64233;51.486;6.332;2023-04-30T09:18:39;102052.91;;;12.27;100.00
75640;BME280;64233;51.486;6.332;2023-04-30T09:21:05;102057.63;;;12.01;100.00
75640;BME280;64233;51.486;6.332;2023-04-30T09:23:33;102055.03;;;11.94;100.00
75640;BME280;64233;51.486;6.332;2023-04-30T09:25:58;102055.19;;;12.11;100.00
75640;BME280;64233;51.486;6.332;2023-04-30T09:28:24;102056.16;;;12.29;100.00
75640;BME280;64233;51.486;6.332;2023-04-30T09:30:55;102040.41;;;12.56;100.00
75640;BME280;64233;51.486;6.332;2023-04-30T09:33:21;102037.47;;;12.69;100.00
75640;BME280;64233;51.486;6.332;2023-04-30T09:35:46;102044.88;;;12.62;100.00
75640;BME280;64233;51.486;6.332;2023-04-30T09:38:31;102037.72;;;12.80;100.00
75640;BME280;64233;51.486;6.332;2023-04-30T09:40:58;102029.63;;;13.03;100.00
75640;BME280;64233;51.486;6.332;2023-04-30T09:43:24;102033.13;;;12.92;100.00
75640;BME280;64233;51.486;6.332;2023-04-30T09:45:50;102033.28;;;12.62;100.00
75640;BME280;64233;51.486;6.332;2023-04-30T09:48:26;102026.94;;;12.80;100.00
75640;BME280;64233;51.486;6.332;2023-04-30T09:50:52;102032.50;;;13.25;100.00
75640;BME280;64233;51.486;6.332;2023-04-30T09:53:18;102027.38;;;13.12;100.00
75640;BME280;64233;51.486;6.332;2023-04-30T09:55:46;102020.63;;;13.50;100.00
75640;BME280;64233;51.486;6.332;2023-04-30T09:58:12;102023.44;;;13.43;100.00
75640;BME280;64233;51.486;6.332;2023-04-30T10:00:38;102026.94;;;13.56;100.00
75640;BME280;64233;51.486;6.332;2023-04-30T10:03:06;102020.56;;;13.09;100.00
75640;BME280;64233;51.486;6.332;2023-04-30T10:05:36;102018.09;;;13.20;100.00
75640;BME280;64233;51.486;6.332;2023-04-30T10:08:02;102017.25;;;13.31;100.00
75640;BME280;64233;51.486;6.332;2023-04-30T10:10:30;102010.84;;;13.61;100.00
75640;BME280;64233;51.486;6.332;2023-04-30T10:12:59;102015.59;;;13.42;100.00
75640;BME280;64233;51.486;6.332;2023-04-30T10:15:35;102021.25;;;13.17;100.00
75640;BME280;64233;51.486;6.332;2023-04-30T10:18:08;102010.81;;;13.44;100.00
75640;BME280;64233;51.486;6.332;2023-04-30T10:20:37;102025.41;;;13.60;100.00
75640;BME280;64233;51.486;6.332;2023-04-30T10:23:03;102010.47;;;13.29;100.00
75640;BME280;64233;51.486;6.332;2023-04-30T10:25:31;102012.16;;;13.47;100.00
75640;BME280;64233;51.486;6.332;2023-04-30T10:27:56;102009.38;;;13.70;100.00
75640;BME280;64233;51.486;6.332;2023-04-30T10:30:22;102002.13;;;13.71;100.00
75640;BME280;64233;51.486;6.332;2023-04-30T10:33:17;102000.38;;;14.10;100.00
75640;BME280;64233;51.486;6.332;2023-04-30T10:35:52;102001.94;;;14.23;100.00
75640;BME280;64233;51.486;6.332;2023-04-30T10:38:22;101990.69;;;14.49;100.00
75640;BME280;64233;51.486;6.332;2023-04-30T10:40:49;101999.56;;;14.10;100.00
75640;BME280;64233;51.486;6.332;2023-04-30T10:43:16;101992.03;;;14.12;100.00
75640;BME280;64233;51.486;6.332;2023-04-30T10:45:42;101998.63;;;13.87;100.00
75640;BME280;64233;51.486;6.332;2023-04-30T10:48:08;101985.66;;;14.01;100.00
75640;BME280;64233;51.486;6.332;2023-04-30T10:50:41;101990.97;;;14.13;100.00
75640;BME280;64233;51.486;6.332;2023-04-30T10:53:12;101979.09;;;13.97;100.00
75640;BME280;64233;51.486;6.332;2023-04-30T10:55:58;101979.25;;;14.24;100.00
75640;BME280;64233;51.486;6.332;2023-04-30T10:58:34;101978.66;;;14.73;100.00
75640;BME280;64233;51.486;6.332;2023-04-30T11:01:12;101974.75;;;14.30;100.00
75640;BME280;64233;51.486;6.332;2023-04-30T11:04:03;101974.06;;;14.57;100.00
75640;BME280;64233;51.486;6.332;2023-04-30T11:07:07;101966.91;;;14.28;100.00
75640;BME280;64233;51.486;6.332;2023-04-30T11:09:41;101965.03;;;14.12;100.00
75640;BME280;64233;51.486;6.332;2023-04-30T11:14:40;101954.72;;;14.09;100.00
75640;BME280;64233;51.486;6.332;2023-04-30T11:17:06;101951.25;;;14.48;100.00
75640;BME280;64233;51.486;6.332;2023-04-30T11:19:31;101953.59;;;15.00;100.00
75640;BME280;64233;51.486;6.332;2023-04-30T11:27:18;101942.53;;;14.23;100.00
75640;BME280;64233;51.486;6.332;2023-04-30T11:29:44;101946.69;;;14.14;100.00
75640;BME280;64233;51.486;6.332;2023-04-30T11:32:11;101943.34;;;14.24;100.00
75640;BME280;64233;51.486;6.332;2023-04-30T11:34:37;101942.53;;;14.79;100.00
75640;BME280;64233;51.486;6.332;2023-04-30T11:37:02;101934.78;;;14.88;100.00
75640;BME280;64233;51.486;6.332;2023-04-30T11:39:28;101937.75;;;14.87;100.00
75640;BME280;64233;51.486;6.332;2023-04-30T11:41:53;101933.56;;;15.23;100.00
75640;BME280;64233;51.486;6.332;2023-04-30T11:44:25;101930.34;;;15.26;100.00
75640;BME280;64233;51.486;6.332;2023-04-30T11:46:50;101937.50;;;15.38;100.00
75640;BME280;64233;51.486;6.332;2023-04-30T11:49:16;101931.09;;;15.44;100.00
75640;BME280;64233;51.486;6.332;2023-04-30T11:51:41;101922.06;;;15.33;100.00
75640;BME280;64233;51.486;6.332;2023-04-30T11:54:07;101923.19;;;15.37;100.00
75640;BME280;64233;51.486;6.332;2023-04-30T11:56:36;101922.56;;;15.57;100.00
75640;BME280;64233;51.486;6.332;2023-04-30T11:59:08;101921.44;;;15.53;100.00
75640;BME280;64233;51.486;6.332;2023-04-30T12:01:34;101925.16;;;15.74;100.00
75640;BME280;64233;51.486;6.332;2023-04-30T12:04:00;101924.19;;;15.58;100.00
75640;BME280;64233;51.486;6.332;2023-04-30T12:06:28;101917.91;;;15.53;100.00
75640;BME280;64233;51.486;6.332;2023-04-30T12:08:56;101917.94;;;15.03;100.00
75640;BME280;64233;51.486;6.332;2023-04-30T12:11:26;101911.19;;;15.55;100.00
75640;BME280;64233;51.486;6.332;2023-04-30T12:14:10;101906.03;;;15.54;100.00
75640;BME280;64233;51.486;6.332;2023-04-30T12:16:44;101904.38;;;15.80;100.00
75640;BME280;64233;51.486;6.332;2023-04-30T12:19:12;101911.44;;;15.81;100.00
75640;BME280;64233;51.486;6.332;2023-04-30T12:21:38;101908.84;;;15.37;100.00
75640;BME280;64233;51.486;6.332;2023-04-30T12:24:05;101905.28;;;15.31;100.00
75640;BME280;64233;51.486;6.332;2023-04-30T12:26:38;101895.28;;;15.09;100.00
75640;BME280;64233;51.486;6.332;2023-04-30T12:29:14;101899.72;;;15.15;100.00
75640;BME280;64233;51.486;6.332;2023-04-30T12:31:39;101903.56;;;15.25;100.00
75640;BME280;64233;51.486;6.332;2023-04-30T12:34:07;101899.00;;;15.85;100.00
75640;BME280;64233;51.486;6.332;2023-04-30T12:36:33;101907.25;;;16.43;100.00
75640;BME280;64233;51.486;6.332;2023-04-30T12:39:02;101900.84;;;16.65;100.00
75640;BME280;64233;51.486;6.332;2023-04-30T12:41:29;101903.22;;;16.08;100.00
75640;BME280;64233;51.486;6.332;2023-04-30T12:44:17;101891.22;;;15.94;100.00
75640;BME280;64233;51.486;6.332;2023-04-30T12:46:43;101893.09;;;15.33;100.00
75640;BME280;64233;51.486;6.332;2023-04-30T12:49:10;101886.97;;;15.76;100.00
75640;BME280;64233;51.486;6.332;2023-04-30T12:51:36;101885.91;;;15.77;100.00
75640;BME280;64233;51.486;6.332;2023-04-30T12:54:04;101886.06;;;15.92;100.00
75640;BME280;64233;51.486;6.332;2023-04-30T12:56:29;101877.88;;;16.25;100.00
75640;BME280;64233;51.486;6.332;2023-04-30T12:58:55;101884.00;;;16.10;100.00
75640;BME280;64233;51.486;6.332;2023-04-30T13:01:20;101877.44;;;16.48;100.00
75640;BME280;64233;51.486;6.332;2023-04-30T13:03:48;101875.19;;;16.30;100.00
75640;BME280;64233;51.486;6.332;2023-04-30T13:06:13;101872.41;;;16.73;100.00
75640;BME280;64233;51.486;6.332;2023-04-30T13:08:38;101878.91;;;16.77;100.00